^^
Atglen Borough Weather Station Historical Data
 
Daily Summary for January 17, 2019 Units:  English    Metric   Both
Daily Weekly Monthly Yearly Custom
  Current: High: Low: Average:
Temperature: 28.0 °F 33.8 °F 23.5 °F 28.2 °F
Dew Point: 18.5 °F 26.4 °F 17.4 °F 20.6 °F
Humidity: 67% 81% 66% 73%
Wind Speed: 0.9mph 6.9mph 0.0mph 1.2mph
Wind Gust: 4.0mph 12.0mph - -
WindNE - - SSW
Pressure: 30.39 in 30.40 in 30.27 in -
Precipitation: 0.00 in      
Historical Graphs
 
 
Tabular Data for January 17, 2019
Time Temperature Dew Point Pressure Wind Wind Speed Wind Gust Humidity Rainfall Rate (Hourly)
00:04 33.8 °F 26.4 °F 30.27 in WNW 0.9 mph 3.0 mph 74% 0.00 in
00:09 33.8 °F 26.4 °F 30.27 in NNW 0.9 mph 5.0 mph 74% 0.00 in
00:14 33.8 °F 26.4 °F 30.27 in NW 2.0 mph 4.0 mph 74% 0.00 in
00:19 33.8 °F 26.4 °F 30.27 in West 2.9 mph 4.0 mph 74% 0.00 in
00:24 33.6 °F 26.2 °F 30.27 in NW 2.0 mph 9.0 mph 74% 0.00 in
00:29 33.6 °F 26.2 °F 30.27 in West 2.9 mph 12.0 mph 74% 0.00 in
00:34 33.6 °F 26.2 °F 30.27 in WNW 0.9 mph 7.0 mph 74% 0.00 in
00:39 33.4 °F 26.1 °F 30.27 in NW 2.0 mph 3.0 mph 74% 0.00 in
00:44 33.4 °F 26.1 °F 30.27 in NW 6.0 mph 7.0 mph 74% 0.00 in
00:49 33.4 °F 26.1 °F 30.27 in West 0.9 mph 5.0 mph 74% 0.00 in
00:54 33.4 °F 26.1 °F 30.27 in WNW 2.0 mph 3.0 mph 74% 0.00 in
00:59 33.4 °F 26.4 °F 30.27 in North 2.9 mph 4.0 mph 75% 0.00 in
01:04 33.3 °F 26.2 °F 30.27 in West 0.9 mph 2.0 mph 75% 0.00 in
01:09 33.3 °F 26.2 °F 30.28 in NNW 2.0 mph 3.0 mph 75% 0.00 in
01:14 33.3 °F 25.9 °F 30.28 in Calm   3.0 mph 74% 0.00 in
01:19 33.3 °F 25.9 °F 30.28 in NNW 0.9 mph 3.0 mph 74% 0.00 in
01:24 33.3 °F 25.9 °F 30.29 in Calm   5.0 mph 74% 0.00 in
01:29 33.3 °F 25.2 °F 30.29 in NNW 2.9 mph 5.0 mph 72% 0.00 in
01:34 33.1 °F 25.0 °F 30.29 in NW 0.9 mph 4.0 mph 72% 0.00 in
01:39 32.5 °F 23.9 °F 30.29 in NW 2.0 mph 6.0 mph 70% 0.00 in
01:44 32.5 °F 23.5 °F 30.29 in North 4.0 mph 8.0 mph 69% 0.00 in
01:49 32.5 °F 23.2 °F 30.29 in North 4.0 mph 5.0 mph 68% 0.00 in
01:54 32.5 °F 22.8 °F 30.29 in North 6.0 mph 6.0 mph 67% 0.00 in
01:59 32.4 °F 22.3 °F 30.29 in NNW 2.0 mph 6.0 mph 66% 0.00 in
02:04 32.0 °F 21.9 °F 30.30 in NW 2.9 mph 4.0 mph 66% 0.00 in
02:09 31.8 °F 22.1 °F 30.30 in NW 2.9 mph 5.0 mph 67% 0.00 in
02:14 31.5 °F 21.7 °F 30.30 in NNW 0.9 mph 3.0 mph 67% 0.00 in
02:19 31.3 °F 21.6 °F 30.30 in NW 2.0 mph 3.0 mph 67% 0.00 in
02:24 31.3 °F 21.6 °F 30.30 in NW 0.9 mph 2.0 mph 67% 0.00 in
02:29 30.9 °F 21.6 °F 30.31 in Calm   3.0 mph 68% 0.00 in
02:34 30.9 °F 21.2 °F 30.31 in NW 0.9 mph 2.0 mph 67% 0.00 in
02:39 30.7 °F 21.4 °F 30.30 in North 2.9 mph 5.0 mph 68% 0.00 in
02:44 30.6 °F 21.6 °F 30.31 in WNW 2.0 mph 5.0 mph 69% 0.00 in
02:49 30.4 °F 21.0 °F 30.31 in Calm   1.0 mph 68% 0.00 in
02:54 30.6 °F 21.2 °F 30.30 in Calm   1.0 mph 68% 0.00 in
02:59 30.4 °F 21.4 °F 30.30 in North 4.0 mph 4.0 mph 69% 0.00 in
03:04 30.0 °F 21.0 °F 30.30 in NNW 2.9 mph 4.0 mph 69% 0.00 in
03:09 29.7 °F 20.7 °F 30.31 in Calm   1.0 mph 69% 0.00 in
03:14 29.3 °F 21.0 °F 30.30 in Calm   2.0 mph 71% 0.00 in
03:19 29.1 °F 20.8 °F 30.30 in NNW 2.9 mph 4.0 mph 71% 0.00 in
03:24 28.8 °F 20.8 °F 30.30 in North 2.0 mph 3.0 mph 72% 0.00 in
03:29 28.6 °F 20.7 °F 30.31 in Calm   2.0 mph 72% 0.00 in
03:34 28.6 °F 20.7 °F 30.31 in North 0.9 mph 2.0 mph 72% 0.00 in
03:39 28.9 °F 20.5 °F 30.31 in North 2.0 mph 3.0 mph 70% 0.00 in
03:44 29.1 °F 20.3 °F 30.31 in North 0.9 mph 3.0 mph 69% 0.00 in
03:49 29.1 °F 20.3 °F 30.32 in North 2.0 mph 3.0 mph 69% 0.00 in
03:54 28.9 °F 20.1 °F 30.32 in North 0.9 mph 2.0 mph 69% 0.00 in
03:59 28.8 °F 20.3 °F 30.32 in Calm   1.0 mph 70% 0.00 in
04:04 28.6 °F 20.1 °F 30.32 in Calm   1.0 mph 70% 0.00 in
04:09 28.6 °F 20.1 °F 30.32 in North 0.9 mph 3.0 mph 70% 0.00 in
04:14 28.8 °F 20.3 °F 30.32 in NNW 2.9 mph 4.0 mph 70% 0.00 in
04:19 28.6 °F 19.8 °F 30.32 in NNW 0.9 mph 3.0 mph 69% 0.00 in
04:24 28.6 °F 19.8 °F 30.32 in NE 0.9 mph 3.0 mph 69% 0.00 in
04:29 28.6 °F 19.8 °F 30.32 in Calm   1.0 mph 69% 0.00 in
04:34 28.2 °F 19.0 °F 30.32 in Calm   1.0 mph 68% 0.00 in
04:39 28.0 °F 19.2 °F 30.32 in NW 2.9 mph 4.0 mph 69% 0.00 in
04:44 27.7 °F 19.2 °F 30.32 in Calm   1.0 mph 70% 0.00 in
04:49 27.3 °F 19.2 °F 30.32 in Calm   1.0 mph 71% 0.00 in
04:54 27.1 °F 19.0 °F 30.32 in Calm   1.0 mph 71% 0.00 in
04:59 27.0 °F 19.2 °F 30.33 in NW 0.9 mph 2.0 mph 72% 0.00 in
05:04 26.8 °F 19.6 °F 30.33 in Calm   2.0 mph 74% 0.00 in
05:09 26.4 °F 19.2 °F 30.33 in NW 0.9 mph 1.0 mph 74% 0.00 in
05:14 26.2 °F 19.0 °F 30.33 in Calm   1.0 mph 74% 0.00 in
05:19 26.4 °F 19.2 °F 30.32 in NW 0.9 mph 2.0 mph 74% 0.00 in
05:24 26.2 °F 19.4 °F 30.33 in Calm   1.0 mph 75% 0.00 in
05:29 25.9 °F 19.0 °F 30.33 in Calm     75% 0.00 in
05:34 25.7 °F 19.2 °F 30.33 in NW 0.9 mph 1.0 mph 76% 0.00 in
05:39 25.5 °F 19.4 °F 30.33 in NW 0.9 mph 2.0 mph 77% 0.00 in
05:44 25.3 °F 19.2 °F 30.33 in NW 0.9 mph 2.0 mph 77% 0.00 in
05:49 25.2 °F 19.0 °F 30.33 in Calm   1.0 mph 77% 0.00 in
05:54 25.3 °F 19.4 °F 30.33 in NW 0.9 mph 2.0 mph 78% 0.00 in
05:59 25.2 °F 19.0 °F 30.33 in NW 0.9 mph 2.0 mph 77% 0.00 in
06:04 24.6 °F 18.7 °F 30.33 in Calm   1.0 mph 78% 0.00 in
06:09 24.6 °F 19.0 °F 30.34 in Calm   1.0 mph 79% 0.00 in
06:14 24.4 °F 18.9 °F 30.34 in Calm   1.0 mph 79% 0.00 in
06:19 24.3 °F 18.7 °F 30.34 in Calm     79% 0.00 in
06:24 24.3 °F 19.0 °F 30.34 in NW 0.9 mph 2.0 mph 80% 0.00 in
06:29 24.3 °F 19.0 °F 30.34 in Calm   2.0 mph 80% 0.00 in
06:34 24.4 °F 18.9 °F 30.35 in Calm   1.0 mph 79% 0.00 in
06:39 24.4 °F 18.9 °F 30.35 in Calm   1.0 mph 79% 0.00 in
06:44 24.4 °F 18.5 °F 30.35 in Calm     78% 0.00 in
06:49 24.3 °F 18.7 °F 30.35 in Calm     79% 0.00 in
06:54 24.3 °F 19.0 °F 30.35 in Calm     80% 0.00 in
06:59 24.1 °F 18.9 °F 30.36 in Calm     80% 0.00 in
07:04 23.7 °F 18.5 °F 30.36 in Calm     80% 0.00 in
07:09 23.5 °F 18.5 °F 30.36 in Calm     81% 0.00 in
07:14 23.5 °F 18.5 °F 30.35 in Calm     81% 0.00 in
07:19 23.7 °F 18.7 °F 30.36 in Calm     81% 0.00 in
07:24 23.7 °F 18.5 °F 30.36 in Calm     80% 0.00 in
07:29 23.5 °F 18.5 °F 30.36 in Calm   3.0 mph 81% 0.00 in
07:34 24.1 °F 18.9 °F 30.37 in North 0.9 mph 2.0 mph 80% 0.00 in
07:39 24.4 °F 18.9 °F 30.37 in ESE 2.0 mph 3.0 mph 79% 0.00 in
07:44 24.4 °F 19.2 °F 30.37 in SE 0.9 mph 2.0 mph 80% 0.00 in
07:49 24.6 °F 19.0 °F 30.37 in Calm   1.0 mph 79% 0.00 in
07:54 25.2 °F 19.2 °F 30.38 in NNE 0.9 mph 3.0 mph 78% 0.00 in
07:59 25.5 °F 19.0 °F 30.38 in Calm     76% 0.00 in
08:04 25.7 °F 18.9 °F 30.37 in NNE 2.0 mph 2.0 mph 75% 0.00 in
08:09 25.9 °F 18.7 °F 30.37 in NE 0.9 mph 4.0 mph 74% 0.00 in
08:14 25.9 °F 18.5 °F 30.37 in Calm     73% 0.00 in
08:19 25.9 °F 18.5 °F 30.38 in Calm   3.0 mph 73% 0.00 in
08:24 25.9 °F 18.5 °F 30.38 in ENE 2.0 mph 2.0 mph 73% 0.00 in
08:29 25.5 °F 18.1 °F 30.38 in NE 0.9 mph 2.0 mph 73% 0.00 in
08:34 25.5 °F 18.1 °F 30.39 in East 0.9 mph 3.0 mph 73% 0.00 in
08:39 25.5 °F 18.1 °F 30.39 in ESE 0.9 mph 2.0 mph 73% 0.00 in
08:44 25.9 °F 18.5 °F 30.39 in Calm   1.0 mph 73% 0.00 in
08:49 25.9 °F 18.5 °F 30.39 in SE 6.9 mph 7.0 mph 73% 0.00 in
08:54 25.9 °F 18.1 °F 30.39 in ESE 0.9 mph 3.0 mph 72% 0.00 in
08:59 26.1 °F 18.0 °F 30.39 in NE 2.0 mph 8.0 mph 71% 0.00 in
09:04 26.1 °F 18.0 °F 30.38 in ENE 2.9 mph 6.0 mph 71% 0.00 in
09:09 26.2 °F 17.8 °F 30.38 in NNE 2.9 mph 5.0 mph 70% 0.00 in
09:14 26.2 °F 17.8 °F 30.39 in ENE 0.9 mph 3.0 mph 70% 0.00 in
09:19 26.4 °F 18.0 °F 30.39 in North 2.0 mph 3.0 mph 70% 0.00 in
09:24 26.6 °F 17.8 °F 30.39 in ESE 0.9 mph 4.0 mph 69% 0.00 in
09:29 27.0 °F 18.1 °F 30.39 in Calm   2.0 mph 69% 0.00 in
09:34 27.3 °F 18.1 °F 30.39 in SE 0.9 mph 6.0 mph 68% 0.00 in
09:39 27.1 °F 18.0 °F 30.39 in NW 2.0 mph 5.0 mph 68% 0.00 in
09:44 27.0 °F 17.4 °F 30.40 in NE 2.0 mph 2.0 mph 67% 0.00 in
09:49 27.9 °F 18.7 °F 30.39 in NE 0.9 mph 4.0 mph 68% 0.00 in
09:54 28.0 °F 18.5 °F 30.39 in NE 0.9 mph 4.0 mph 67% 0.00 in
Atglen Borough Observatory, Pennsylvania, USA
Compliments of Weather Underground - 2.75 mb